createdAt,value
2017-04-24T00:02:36.083Z,100
2017-04-24T00:12:49.857Z,100
2017-04-24T00:23:05.187Z,100
2017-04-24T00:33:18.892Z,100
2017-04-24T00:43:33.882Z,100
2017-04-24T00:53:47.871Z,100
2017-04-24T01:04:03.551Z,100
2017-04-24T01:14:17.826Z,100
2017-04-24T01:24:32.576Z,100
2017-04-24T01:34:47.476Z,100
2017-04-24T01:45:02.656Z,100
2017-04-24T01:55:17.747Z,100
2017-04-24T02:05:33.321Z,100
2017-04-24T02:15:47.452Z,100
2017-04-24T02:26:01.909Z,100
2017-04-24T02:36:16.048Z,100
2017-04-24T02:46:30.721Z,100
2017-04-24T02:56:46.257Z,100
2017-04-24T03:07:00.078Z,100
2017-04-24T03:17:15.315Z,100
2017-04-24T03:27:30.944Z,100
2017-04-24T03:37:46.138Z,100
2017-04-24T03:48:00.250Z,100
2017-04-24T03:58:14.820Z,100
2017-04-24T04:08:29.695Z,100
2017-04-24T04:18:44.105Z,100
2017-04-24T04:28:58.761Z,100
2017-04-24T04:39:13.422Z,100
2017-04-24T04:49:28.841Z,100
2017-04-24T04:59:44.245Z,100
2017-04-24T05:09:58.515Z,100
2017-04-24T05:20:13.727Z,100
2017-04-24T05:30:29.087Z,100
2017-04-24T05:40:44.057Z,100
2017-04-24T05:50:59.658Z,100
2017-04-24T06:01:13.935Z,100
2017-04-24T06:11:28.625Z,100
2017-04-24T06:21:43.491Z,100
2017-04-24T06:31:57.766Z,100
2017-04-24T06:42:12.189Z,100
2017-04-24T06:52:27.663Z,100
2017-04-24T07:02:43.369Z,99.6
2017-04-24T07:12:58.358Z,98.2
2017-04-24T07:23:13.106Z,97.4
2017-04-24T07:33:27.887Z,94.9
2017-04-24T07:43:42.061Z,93.4
2017-04-24T07:53:56.237Z,91
2017-04-24T08:04:11.480Z,88.8
2017-04-24T08:14:26.400Z,88
2017-04-24T08:24:40.563Z,86.2
2017-04-24T08:34:54.855Z,85
2017-04-24T08:45:10.331Z,81.8
2017-04-24T08:55:25.045Z,80.6
2017-04-24T09:05:40.886Z,78.5
2017-04-24T09:15:56.321Z,76.6
2017-04-24T09:26:12.042Z,75.7
2017-04-24T09:36:27.164Z,74.9
2017-04-24T09:46:42.477Z,73.8
2017-04-24T09:56:58.294Z,73.2
2017-04-24T10:07:12.191Z,72.8
2017-04-24T10:17:26.862Z,73
2017-04-24T10:27:40.743Z,71.6
2017-04-24T10:37:54.668Z,71.8
2017-04-24T10:48:09.180Z,70.2
2017-04-24T10:58:24.492Z,69.9
2017-04-24T11:08:39.609Z,70.1
2017-04-24T11:18:55.084Z,69.6
2017-04-24T11:29:09.637Z,70
2017-04-24T11:39:25.282Z,71.4
2017-04-24T11:49:40.767Z,70.7
2017-04-24T11:59:56.426Z,69.6
2017-04-24T12:10:11.266Z,69.7
2017-04-24T12:20:27.109Z,68.5
2017-04-24T12:30:42.518Z,68.4
2017-04-24T12:40:57.754Z,68.3
2017-04-24T12:51:12.648Z,68.4
2017-04-24T13:01:26.913Z,68.8
2017-04-24T13:11:41.559Z,67.2
2017-04-24T13:21:55.567Z,67.2
2017-04-24T13:32:10.739Z,68.3
2017-04-24T13:42:24.941Z,68.7
2017-04-24T13:52:39.215Z,69.5
2017-04-24T14:02:53.596Z,70
2017-04-24T14:13:08.822Z,71.9
2017-04-24T14:23:24.066Z,75.4
2017-04-24T14:33:39.820Z,75.6
2017-04-24T14:43:54.146Z,77.2
2017-04-24T14:54:08.371Z,77.7
2017-04-24T15:04:23.878Z,77.5
2017-04-24T15:14:39.438Z,76.9
2017-04-24T15:24:53.729Z,74.8
2017-04-24T15:35:08.972Z,74.1
2017-04-24T15:45:24.528Z,72.6
2017-04-24T15:55:39.298Z,72.7
2017-04-24T16:05:54.925Z,73.6
2017-04-24T16:16:10.690Z,74.6
2017-04-24T16:26:25.429Z,77.2
2017-04-24T16:36:39.891Z,78.7
2017-04-24T16:46:54.981Z,80.4
2017-04-24T16:57:09.304Z,81.9
2017-04-24T17:07:24.631Z,83.7
2017-04-24T17:17:39.919Z,84.4
2017-04-24T17:27:54.004Z,86.1
2017-04-24T17:38:08.830Z,90.9
2017-04-24T17:48:23.385Z,93.8
2017-04-24T17:58:37.315Z,95.6
2017-04-24T18:08:51.512Z,97.9
2017-04-24T18:19:06.368Z,99.3
2017-04-24T18:29:20.569Z,99.1
2017-04-24T18:39:35.230Z,99.1
2017-04-24T18:49:50.930Z,98.7
2017-04-24T19:00:05.931Z,96.9
2017-04-24T19:10:20.069Z,95.6
2017-04-24T19:20:34.506Z,94.5
2017-04-24T19:30:48.774Z,94.3
2017-04-24T19:41:02.517Z,94.5
2017-04-24T19:51:18.225Z,94.6
2017-04-24T20:01:32.029Z,94.6
2017-04-24T20:11:47.775Z,94.7
2017-04-24T20:22:01.650Z,95
2017-04-24T20:32:16.313Z,94.3
2017-04-24T20:42:31.269Z,93.5
2017-04-24T20:52:45.496Z,93.8
2017-04-24T21:03:00.211Z,92.8
2017-04-24T21:13:14.827Z,93.1
2017-04-24T21:23:28.738Z,93.3
2017-04-24T21:33:43.302Z,93.1
2017-04-24T21:43:58.605Z,93.5
2017-04-24T21:54:13.284Z,94.5
2017-04-24T22:04:28.171Z,94.2
2017-04-24T22:14:43.209Z,94.5
2017-04-24T22:24:57.161Z,94.5
2017-04-24T22:35:11.992Z,94.9
2017-04-24T22:45:26.572Z,95.5
2017-04-24T22:55:40.349Z,95.7
2017-04-24T23:05:54.592Z,96.7
2017-04-24T23:16:09.273Z,96.8
2017-04-24T23:26:24.402Z,98.4
2017-04-24T23:36:39.809Z,100
2017-04-24T23:46:53.939Z,100
2017-04-24T23:57:08.804Z,100
